createdAt,value
2019-05-17T00:00:37.543Z,94839.57
2019-05-17T00:03:07.176Z,94837.93
2019-05-17T00:05:37.530Z,94832.39
2019-05-17T00:08:07.705Z,94826.42
2019-05-17T00:10:37.486Z,94825.53
2019-05-17T00:13:09.331Z,94826.88
2019-05-17T00:15:37.294Z,94820.02
2019-05-17T00:18:06.675Z,94820.50
2019-05-17T00:20:37.526Z,94814.53
2019-05-17T00:23:07.046Z,94815.39
2019-05-17T00:25:37.052Z,94819.66
2019-05-17T00:28:07.399Z,94820.97
2019-05-17T00:30:37.366Z,94818.02
2019-05-17T00:33:07.866Z,94821.39
2019-05-17T00:35:37.602Z,94817.09
2019-05-17T00:38:07.047Z,94817.06
2019-05-17T00:40:36.524Z,94819.63
2019-05-17T00:43:06.798Z,94819.63
2019-05-17T00:45:37.764Z,94822.67
2019-05-17T00:48:06.947Z,94823.21
2019-05-17T00:50:38.019Z,94818.98
2019-05-17T00:53:07.269Z,94821.58
2019-05-17T00:55:36.631Z,94822.05
2019-05-17T00:58:06.723Z,94828.46
2019-05-17T01:00:37.549Z,94831.09
2019-05-17T01:03:07.305Z,94833.30
2019-05-17T01:05:37.029Z,94821.38
2019-05-17T01:08:07.386Z,94820.53
2019-05-17T01:10:36.870Z,94812.84
2019-05-17T01:13:06.749Z,94810.28
2019-05-17T01:15:36.911Z,94810.73
2019-05-17T01:18:07.227Z,94805.64
2019-05-17T01:20:36.906Z,94809.93
2019-05-17T01:23:07.703Z,94810.31
2019-05-17T01:25:38.053Z,94808.62
2019-05-17T01:28:07.848Z,94810.28
2019-05-17T01:30:37.545Z,94808.14
2019-05-17T01:33:07.024Z,94804.71
2019-05-17T01:35:37.391Z,94812.05
2019-05-17T01:38:07.457Z,94807.02
2019-05-17T01:40:37.321Z,94809.55
2019-05-17T01:43:07.991Z,94807.02
2019-05-17T01:45:36.741Z,94809.13
2019-05-17T01:48:07.343Z,94808.67
2019-05-17T01:50:37.363Z,94812.97
2019-05-17T01:53:07.429Z,94816.36
2019-05-17T01:55:37.565Z,94818.98
2019-05-17T01:58:07.303Z,94819.83
2019-05-17T02:00:37.559Z,94825.39
2019-05-17T02:03:07.420Z,94830.08
2019-05-17T02:05:37.294Z,94834.37
2019-05-17T02:08:06.976Z,94840.77
2019-05-17T02:10:37.569Z,94828.38
2019-05-17T02:13:06.884Z,94825.39
2019-05-17T02:15:37.884Z,94822.77
2019-05-17T02:18:06.968Z,94822.84
2019-05-17T02:20:37.308Z,94821.97
2019-05-17T02:23:07.248Z,94822.03
2019-05-17T02:25:36.858Z,94824.14
2019-05-17T02:28:05.898Z,94827.95
2019-05-17T02:30:34.957Z,94821.61
2019-05-17T02:33:04.657Z,94812.25
2019-05-17T02:35:34.068Z,94817.41
2019-05-17T02:38:03.371Z,94819.97
2019-05-17T02:40:33.925Z,94823.81
2019-05-17T02:43:03.477Z,94825.99
2019-05-17T02:45:33.396Z,94825.09
2019-05-17T02:48:03.824Z,94832.40
2019-05-17T02:50:33.378Z,94830.22
2019-05-17T02:53:04.530Z,94834.52
2019-05-17T02:55:33.244Z,94835.83
2019-05-17T02:58:03.041Z,94836.69
2019-05-17T03:00:33.734Z,94833.70
2019-05-17T03:03:04.201Z,94834.96
2019-05-17T03:05:34.058Z,94834.96
2019-05-17T03:08:03.974Z,94835.34
2019-05-17T03:10:34.070Z,94831.12
2019-05-17T03:13:04.560Z,94825.55
2019-05-17T03:15:34.937Z,94826.83
2019-05-17T03:18:04.075Z,94828.14
2019-05-17T03:20:33.270Z,94825.57
2019-05-17T03:23:03.712Z,94822.17
2019-05-17T03:25:33.574Z,94818.36
2019-05-17T03:28:03.648Z,94824.73
2019-05-17T03:30:36.757Z,94822.59
2019-05-17T03:33:07.503Z,94824.73
2019-05-17T03:35:37.323Z,94826.83
2019-05-17T03:38:05.843Z,94830.22
2019-05-17T03:41:03.443Z,94827.27
2019-05-17T03:43:04.810Z,94828.55
2019-05-17T03:45:34.156Z,94822.15
2019-05-17T03:48:04.648Z,94820.09
2019-05-17T03:50:34.084Z,94829.51
2019-05-17T03:53:02.986Z,94831.68
2019-05-17T03:55:33.123Z,94836.69
2019-05-17T03:58:03.355Z,94835.31
2019-05-17T04:00:35.312Z,94838.72
2019-05-17T04:03:03.314Z,94841.30
2019-05-17T04:05:33.437Z,94847.66
2019-05-17T04:08:03.523Z,94842.53
2019-05-17T04:10:33.605Z,94842.47
2019-05-17T04:13:04.535Z,94851.83
2019-05-17T04:15:33.383Z,94852.60
2019-05-17T04:18:04.122Z,94856.84
2019-05-17T04:20:33.142Z,94848.70
2019-05-17T04:23:03.971Z,94851.63
2019-05-17T04:25:33.775Z,94845.59
2019-05-17T04:28:03.364Z,94845.22
2019-05-17T04:30:32.905Z,94849.15
2019-05-17T04:33:03.372Z,94849.50
2019-05-17T04:35:32.860Z,94854.98
2019-05-17T04:38:04.377Z,94856.63
2019-05-17T04:40:33.985Z,94856.98
2019-05-17T04:43:03.220Z,94865.03
2019-05-17T04:45:33.743Z,94856.41
2019-05-17T04:48:04.147Z,94858.44
2019-05-17T04:50:33.988Z,94863.09
2019-05-17T04:53:03.266Z,94860.88
2019-05-17T04:55:34.186Z,94859.98
2019-05-17T04:58:03.837Z,94858.70
2019-05-17T05:00:34.113Z,94869.31
2019-05-17T05:03:04.439Z,94860.34
2019-05-17T05:05:33.711Z,94854.73
2019-05-17T05:08:03.193Z,94845.73
2019-05-17T05:10:33.759Z,94845.25
2019-05-17T05:13:03.474Z,94855.03
2019-05-17T05:15:44.965Z,94853.63
2019-05-17T05:18:14.180Z,94862.95
2019-05-17T05:20:43.731Z,94857.70
2019-05-17T05:23:13.489Z,94851.19
2019-05-17T05:25:45.439Z,94861.35
2019-05-17T05:28:14.210Z,94862.13
2019-05-17T05:30:42.749Z,94863.28
2019-05-17T05:33:12.793Z,94868.73
2019-05-17T05:35:42.542Z,94863.50
2019-05-17T05:38:12.977Z,94862.12
2019-05-17T05:40:43.018Z,94861.16
2019-05-17T05:43:12.090Z,94857.58
2019-05-17T05:45:41.765Z,94863.28
2019-05-17T05:48:12.890Z,94862.11
2019-05-17T05:50:42.548Z,94866.20
2019-05-17T05:53:12.927Z,94875.41
2019-05-17T05:55:42.831Z,94874.78
2019-05-17T05:58:12.546Z,94876.27
2019-05-17T06:00:42.717Z,94879.08
2019-05-17T06:03:12.199Z,94883.66
2019-05-17T06:05:42.464Z,94882.65
2019-05-17T06:08:12.210Z,94894.06
2019-05-17T06:10:42.594Z,94889.65
2019-05-17T06:13:12.974Z,94884.71
2019-05-17T06:15:42.960Z,94885.70
2019-05-17T06:18:12.393Z,94884.99
2019-05-17T06:20:41.978Z,94882.16
2019-05-17T06:23:12.339Z,94886.42
2019-05-17T06:25:43.685Z,94886.91
2019-05-17T06:28:11.876Z,94882.05
2019-05-17T06:30:43.089Z,94885.77
2019-05-17T06:33:12.014Z,94887.34
2019-05-17T06:35:42.299Z,94886.02
2019-05-17T06:38:11.995Z,94885.00
2019-05-17T06:40:42.108Z,94879.97
2019-05-17T06:43:13.125Z,94873.38
2019-05-17T06:45:42.100Z,94876.57
2019-05-17T06:48:11.793Z,94882.75
2019-05-17T06:50:43.092Z,94882.55
2019-05-17T06:53:12.444Z,94888.41
2019-05-17T06:55:42.480Z,94893.80
2019-05-17T06:58:12.278Z,94891.29
2019-05-17T07:00:41.058Z,94885.09
2019-05-17T07:03:09.844Z,94886.81
2019-05-17T07:05:41.141Z,94889.61
2019-05-17T07:08:10.760Z,94891.80
2019-05-17T07:10:40.132Z,94890.92
2019-05-17T07:13:10.573Z,94888.88
2019-05-17T07:15:47.322Z,94891.94
2019-05-17T07:18:10.458Z,94897.05
2019-05-17T07:20:39.689Z,94889.30
2019-05-17T07:23:10.678Z,94886.34
2019-05-17T07:25:39.929Z,94888.52
2019-05-17T07:28:10.044Z,94887.68
2019-05-17T07:30:39.918Z,94887.46
2019-05-17T07:33:10.156Z,94896.65
2019-05-17T07:35:39.622Z,94894.08
2019-05-17T07:38:10.643Z,94894.84
2019-05-17T07:40:40.078Z,94891.55
2019-05-17T07:43:14.305Z,94893.09
2019-05-17T07:45:40.467Z,94896.65
2019-05-17T07:48:09.950Z,94899.03
2019-05-17T07:50:40.520Z,94892.94
2019-05-17T07:53:10.216Z,94895.66
2019-05-17T07:55:40.005Z,94898.48
2019-05-17T07:58:09.906Z,94892.38
2019-05-17T08:00:40.008Z,94890.03
2019-05-17T08:03:12.671Z,94890.80
2019-05-17T08:05:40.257Z,94897.89
2019-05-17T08:08:10.020Z,94904.18
2019-05-17T08:10:41.109Z,94903.71
2019-05-17T08:13:25.186Z,94902.13
2019-05-17T08:15:39.878Z,94901.42
2019-05-17T08:18:10.759Z,94901.23
2019-05-17T08:20:40.138Z,94904.11
2019-05-17T08:23:10.659Z,94908.31
2019-05-17T08:25:52.042Z,94913.69
2019-05-17T08:28:11.023Z,94916.98
2019-05-17T08:30:40.876Z,94912.64
2019-05-17T08:33:10.841Z,94914.45
2019-05-17T08:35:40.202Z,94921.68
2019-05-17T08:38:10.250Z,94922.91
2019-05-17T08:40:41.073Z,94923.25
2019-05-17T08:43:10.114Z,94931.58
2019-05-17T08:45:40.690Z,94933.06
2019-05-17T08:48:09.946Z,94933.33
2019-05-17T08:50:40.402Z,94932.89
2019-05-17T08:53:10.637Z,94939.32
2019-05-17T08:55:40.950Z,94934.75
2019-05-17T08:58:10.595Z,94926.13
2019-05-17T09:00:40.661Z,94931.09
2019-05-17T09:03:10.705Z,94925.21
2019-05-17T09:05:41.841Z,94921.01
2019-05-17T09:08:10.760Z,94919.89
2019-05-17T09:10:40.713Z,94921.09
2019-05-17T09:13:12.488Z,94921.95
2019-05-17T09:15:40.447Z,94914.23
2019-05-17T09:18:09.857Z,94910.44
2019-05-17T09:20:40.596Z,94914.17
2019-05-17T09:23:09.914Z,94918.39
2019-05-17T09:25:39.746Z,94919.86
2019-05-17T09:28:10.131Z,94910.30
2019-05-17T09:30:40.500Z,94905.92
2019-05-17T09:33:11.239Z,94904.78
2019-05-17T09:35:41.058Z,94902.26
2019-05-17T09:38:10.700Z,94901.57
2019-05-17T09:40:40.270Z,94908.13
2019-05-17T09:43:10.271Z,94903.73
2019-05-17T09:45:40.535Z,94904.09
2019-05-17T09:48:10.580Z,94896.47
2019-05-17T09:50:39.937Z,94890.72
2019-05-17T09:53:10.861Z,94892.22
2019-05-17T09:55:39.822Z,94885.55
2019-05-17T09:58:09.974Z,94887.67
2019-05-17T10:00:39.119Z,94890.27
2019-05-17T10:03:09.767Z,94889.73
2019-05-17T10:05:40.627Z,94894.33
2019-05-17T10:08:10.932Z,94891.78
2019-05-17T10:10:40.244Z,94893.71
2019-05-17T10:13:09.887Z,94887.91
2019-05-17T10:15:41.010Z,94896.61
2019-05-17T10:18:11.046Z,94892.77
2019-05-17T10:20:40.314Z,94892.04
2019-05-17T10:23:10.435Z,94901.70
2019-05-17T10:25:40.320Z,94899.23
2019-05-17T10:28:10.093Z,94901.31
2019-05-17T10:30:40.628Z,94900.03
2019-05-17T10:33:09.974Z,94898.38
2019-05-17T10:35:40.603Z,94898.97
2019-05-17T10:38:10.233Z,94897.44
2019-05-17T10:40:40.912Z,94892.72
2019-05-17T10:43:10.434Z,94898.14
2019-05-17T10:45:40.282Z,94893.09
2019-05-17T10:48:10.464Z,94887.24
2019-05-17T10:50:40.813Z,94888.47
2019-05-17T10:53:09.991Z,94891.30
2019-05-17T10:55:39.724Z,94883.02
2019-05-17T10:58:10.040Z,94877.92
2019-05-17T11:00:41.367Z,94881.83
2019-05-17T11:03:10.269Z,94885.66
2019-05-17T11:05:40.571Z,94879.28
2019-05-17T11:08:10.809Z,94880.19
2019-05-17T11:10:39.961Z,94886.00
2019-05-17T11:13:09.044Z,94886.23
2019-05-17T11:15:37.659Z,94884.31
2019-05-17T11:18:06.283Z,94884.95
2019-05-17T11:20:34.897Z,94888.44
2019-05-17T11:23:03.819Z,94886.19
2019-05-17T11:25:32.391Z,94893.26
2019-05-17T11:28:01.101Z,94894.02
2019-05-17T11:30:29.653Z,94886.72
2019-05-17T11:32:58.255Z,94890.74
2019-05-17T11:35:26.877Z,94892.94
2019-05-17T11:37:55.634Z,94883.38
2019-05-17T11:40:24.588Z,94885.92
2019-05-17T11:42:53.176Z,94895.31
2019-05-17T11:45:27.881Z,94888.69
2019-05-17T11:47:52.120Z,94886.54
2019-05-17T11:50:20.825Z,94889.31
2019-05-17T11:52:49.312Z,94891.98
2019-05-17T11:55:18.232Z,94894.97
2019-05-17T11:57:46.840Z,94895.69
2019-05-17T12:00:17.791Z,94886.94
2019-05-17T12:02:46.371Z,94894.75
2019-05-17T12:05:15.709Z,94896.61
2019-05-17T12:07:44.514Z,94899.63
2019-05-17T12:10:14.054Z,94896.17
2019-05-17T12:12:42.700Z,94890.41
2019-05-17T12:15:12.041Z,94892.05
2019-05-17T12:17:40.613Z,94889.67
2019-05-17T12:20:12.194Z,94887.36
2019-05-17T12:22:40.805Z,94889.05
2019-05-17T12:25:09.863Z,94893.70
2019-05-17T12:27:38.414Z,94892.44
2019-05-17T12:30:13.073Z,94890.06
2019-05-17T12:32:41.995Z,94885.45
2019-05-17T12:35:10.683Z,94883.64
2019-05-17T12:37:42.234Z,94887.24
2019-05-17T12:40:11.139Z,94888.25
2019-05-17T12:42:39.743Z,94883.48
2019-05-17T12:45:10.770Z,94888.44
2019-05-17T12:47:39.230Z,94886.34
2019-05-17T12:50:11.643Z,94876.89
2019-05-17T12:52:40.274Z,94882.53
2019-05-17T12:55:09.533Z,94871.46
2019-05-17T12:57:39.612Z,94876.04
2019-05-17T13:00:11.081Z,94868.51
2019-05-17T13:02:39.629Z,94877.05
2019-05-17T13:05:11.667Z,94874.23
2019-05-17T13:07:40.676Z,94872.58
2019-05-17T13:10:09.911Z,94874.19
2019-05-17T13:12:38.511Z,94868.88
2019-05-17T13:15:08.325Z,94871.00
2019-05-17T13:17:36.933Z,94865.82
2019-05-17T13:20:08.334Z,94860.88
2019-05-17T13:22:37.219Z,94865.06
2019-05-17T13:25:09.455Z,94869.12
2019-05-17T13:27:39.277Z,94869.59
2019-05-17T13:30:10.563Z,94873.00
2019-05-17T13:32:39.165Z,94872.01
2019-05-17T13:35:09.782Z,94874.06
2019-05-17T13:37:38.425Z,94870.18
2019-05-17T13:40:07.635Z,94865.47
2019-05-17T13:42:36.245Z,94872.84
2019-05-17T13:45:07.288Z,94874.67
2019-05-17T13:47:35.924Z,94876.36
2019-05-17T13:50:06.584Z,94873.67
2019-05-17T13:52:35.228Z,94876.73
2019-05-17T13:55:05.768Z,94877.19
2019-05-17T13:57:34.431Z,94880.73
2019-05-17T14:00:03.519Z,94869.88
2019-05-17T14:02:32.466Z,94882.95
2019-05-17T14:05:01.215Z,94879.29
2019-05-17T14:07:29.751Z,94876.77
2019-05-17T14:09:58.306Z,94874.27
2019-05-17T14:12:26.836Z,94876.40
2019-05-17T14:14:55.407Z,94874.34
2019-05-17T14:17:23.942Z,94875.70
2019-05-17T14:19:52.578Z,94874.20
2019-05-17T14:22:22.767Z,94870.61
2019-05-17T14:24:51.406Z,94875.54
2019-05-17T14:27:20.032Z,94870.28
2019-05-17T14:29:48.673Z,94868.69
2019-05-17T14:32:17.203Z,94869.58
2019-05-17T14:34:45.811Z,94871.09
2019-05-17T14:37:14.351Z,94869.49
2019-05-17T14:39:43.183Z,94870.17
2019-05-17T14:42:11.793Z,94866.76
2019-05-17T14:44:40.593Z,94870.94
2019-05-17T14:47:09.204Z,94867.06
2019-05-17T14:49:37.714Z,94874.05
2019-05-17T14:52:06.405Z,94879.22
2019-05-17T14:54:35.341Z,94880.15
2019-05-17T14:57:03.874Z,94880.33
2019-05-17T14:59:32.466Z,94884.21
2019-05-17T15:02:01.011Z,94886.49
2019-05-17T15:04:29.616Z,94889.08
2019-05-17T15:07:00.189Z,94887.66
2019-05-17T15:09:28.755Z,94890.03
2019-05-17T15:11:57.564Z,94888.98
2019-05-17T15:14:29.685Z,94885.47
2019-05-17T15:16:59.313Z,94884.64
2019-05-17T15:19:27.878Z,94885.41
2019-05-17T15:21:56.416Z,94881.00
2019-05-17T15:24:25.033Z,94880.02
2019-05-17T15:27:04.997Z,94877.12
2019-05-17T15:29:23.911Z,94875.08
2019-05-17T15:31:52.600Z,94878.08
2019-05-17T15:36:56.815Z,94880.73
2019-05-17T15:39:27.186Z,94890.11
2019-05-17T15:41:55.838Z,94884.39
2019-05-17T15:44:26.988Z,94890.73
2019-05-17T15:46:54.700Z,94896.59
2019-05-17T15:49:23.359Z,94886.23
2019-05-17T15:51:52.068Z,94891.92
2019-05-17T15:54:20.606Z,94882.33
2019-05-17T15:56:49.180Z,94880.03
2019-05-17T15:59:17.795Z,94880.77
2019-05-17T16:01:46.599Z,94881.92
2019-05-17T16:04:16.943Z,94876.14
2019-05-17T16:06:47.206Z,94870.78
2019-05-17T16:09:16.058Z,94871.00
2019-05-17T16:11:44.843Z,94864.14
2019-05-17T16:14:13.449Z,94866.89
2019-05-17T16:16:42.056Z,94855.19
2019-05-17T16:19:10.702Z,94853.12
2019-05-17T16:21:39.241Z,94846.36
2019-05-17T16:24:07.887Z,94848.70
2019-05-17T16:26:36.512Z,94853.09
2019-05-17T16:29:05.126Z,94858.02
2019-05-17T16:31:33.734Z,94858.28
2019-05-17T16:34:02.378Z,94863.14
2019-05-17T16:36:31.013Z,94869.81
2019-05-17T16:38:59.591Z,94866.61
2019-05-17T16:41:28.258Z,94876.23
2019-05-17T16:43:59.391Z,94878.45
2019-05-17T16:46:27.998Z,94877.67
2019-05-17T16:48:59.091Z,94875.35
2019-05-17T16:51:27.731Z,94881.38
2019-05-17T16:53:56.295Z,94875.90
2019-05-17T16:56:24.896Z,94872.97
2019-05-17T16:58:53.444Z,94875.19
2019-05-17T17:01:22.095Z,94885.58
2019-05-17T17:03:50.719Z,94883.97
2019-05-17T17:06:19.617Z,94882.67
2019-05-17T17:08:48.226Z,94886.18
2019-05-17T17:11:16.836Z,94879.78
2019-05-17T17:13:45.522Z,94881.22
2019-05-17T17:16:14.134Z,94880.91
2019-05-17T17:18:42.750Z,94874.50
2019-05-17T17:21:11.466Z,94880.13
2019-05-17T17:23:40.011Z,94880.70
2019-05-17T17:26:08.608Z,94874.08
2019-05-17T17:28:37.260Z,94869.11
2019-05-17T17:31:08.781Z,94868.77
2019-05-17T17:33:37.348Z,94876.14
2019-05-17T17:36:06.097Z,94883.11
2019-05-17T17:38:34.711Z,94877.77
2019-05-17T17:41:03.331Z,94884.34
2019-05-17T17:43:31.944Z,94881.26
2019-05-17T17:46:00.525Z,94877.20
2019-05-17T17:48:29.311Z,94883.47
2019-05-17T17:50:58.177Z,94879.84
2019-05-17T17:53:26.725Z,94883.34
2019-05-17T17:58:22.899Z,94889.50
2019-05-17T18:00:55.566Z,94888.16
2019-05-17T18:03:24.174Z,94890.14
2019-05-17T18:05:52.791Z,94887.06
2019-05-17T18:08:21.361Z,94900.66
2019-05-17T18:10:49.972Z,94903.72
2019-05-17T18:13:18.708Z,94903.57
2019-05-17T18:15:50.492Z,94909.45
2019-05-17T18:18:19.926Z,94908.42
2019-05-17T18:20:48.474Z,94916.38
2019-05-17T18:23:22.496Z,94915.38
2019-05-17T18:25:48.055Z,94921.17
2019-05-17T18:28:16.835Z,94910.42
2019-05-17T18:30:45.488Z,94919.32
2019-05-17T18:33:14.219Z,94927.83
2019-05-17T18:35:43.254Z,94930.70
2019-05-17T18:38:11.873Z,94931.98
2019-05-17T18:40:40.443Z,94931.42
2019-05-17T18:43:09.055Z,94936.02
2019-05-17T18:45:37.717Z,94931.52
2019-05-17T18:48:06.694Z,94938.68
2019-05-17T18:50:35.595Z,94944.43
2019-05-17T18:53:06.397Z,94950.22
2019-05-17T18:55:35.396Z,94951.58
2019-05-17T18:58:04.098Z,94947.05
2019-05-17T19:00:32.858Z,94952.30
2019-05-17T19:03:01.494Z,94957.59
2019-05-17T19:05:30.128Z,94956.45
2019-05-17T19:08:00.375Z,94961.67
2019-05-17T19:10:29.616Z,94950.66
2019-05-17T19:12:58.192Z,94958.52
2019-05-17T19:15:26.868Z,94953.22
2019-05-17T19:17:55.487Z,94948.70
2019-05-17T19:20:24.155Z,94949.79
2019-05-17T19:22:52.864Z,94951.21
2019-05-17T19:25:21.479Z,94953.95
2019-05-17T19:27:50.325Z,94946.49
2019-05-17T19:30:19.940Z,94946.63
2019-05-17T19:32:48.560Z,94945.45
2019-05-17T19:35:17.177Z,94945.13
2019-05-17T19:37:45.721Z,94949.50
2019-05-17T19:40:14.702Z,94952.24
2019-05-17T19:42:43.316Z,94956.19
2019-05-17T19:45:13.665Z,94960.21
2019-05-17T19:47:42.214Z,94959.92
2019-05-17T19:50:13.534Z,94957.91
2019-05-17T19:52:41.813Z,94961.95
2019-05-17T19:55:11.037Z,94965.55
2019-05-17T19:57:39.645Z,94966.66
2019-05-17T20:00:11.737Z,94963.70
2019-05-17T20:02:40.313Z,94961.72
2019-05-17T20:05:09.161Z,94955.97
2019-05-17T20:07:39.389Z,94961.99
2019-05-17T20:10:09.924Z,94962.50
2019-05-17T20:12:38.539Z,94965.22
2019-05-17T20:15:17.463Z,94965.43
2019-05-17T20:17:38.429Z,94966.38
2019-05-17T20:20:07.971Z,94964.71
2019-05-17T20:22:36.595Z,94968.17
2019-05-17T20:25:06.657Z,94962.20
2019-05-17T20:27:35.580Z,94962.73
2019-05-17T20:30:10.985Z,94957.28
2019-05-17T20:32:39.588Z,94956.95
2019-05-17T20:35:08.626Z,94956.17
2019-05-17T20:37:37.272Z,94961.30
2019-05-17T20:40:08.230Z,94960.52
2019-05-17T20:42:36.781Z,94964.38
2019-05-17T20:45:10.217Z,94967.80
2019-05-17T20:47:38.930Z,94955.42
2019-05-17T20:50:10.704Z,94958.91
2019-05-17T20:52:39.255Z,94960.22
2019-05-17T20:55:08.402Z,94972.23
2019-05-17T20:57:37.017Z,94965.48
2019-05-17T21:00:07.832Z,94959.97
2019-05-17T21:02:36.397Z,94961.81
2019-05-17T21:05:07.116Z,94963.56
2019-05-17T21:07:35.795Z,94961.11
2019-05-17T21:10:05.516Z,94956.13
2019-05-17T21:12:34.097Z,94948.07
2019-05-17T21:15:02.646Z,94958.30
2019-05-17T21:17:31.264Z,94954.92
2019-05-17T21:19:59.805Z,94953.33
2019-05-17T21:22:28.412Z,94956.34
2019-05-17T21:24:56.984Z,94959.34
2019-05-17T21:27:25.675Z,94961.94
2019-05-17T21:29:54.256Z,94964.11
2019-05-17T21:32:22.870Z,94958.23
2019-05-17T21:34:51.487Z,94950.23
2019-05-17T21:37:20.212Z,94946.80
2019-05-17T21:39:48.859Z,94952.73
2019-05-17T21:42:17.413Z,94951.54
2019-05-17T21:44:46.115Z,94956.77
2019-05-17T21:47:14.669Z,94955.14
2019-05-17T21:49:43.276Z,94955.64
2019-05-17T21:52:11.819Z,94951.02
2019-05-17T21:54:40.464Z,94952.30
2019-05-17T21:57:09.223Z,94952.69
2019-05-17T21:59:37.862Z,94956.16
2019-05-17T22:02:06.660Z,94961.36
2019-05-17T22:04:35.280Z,94957.08
2019-05-17T22:07:04.684Z,94953.68
2019-05-17T22:09:33.267Z,94947.67
2019-05-17T22:12:12.452Z,94946.94
2019-05-17T22:14:41.151Z,94944.84
2019-05-17T22:17:10.570Z,94955.03
2019-05-17T22:19:39.122Z,94948.27
2019-05-17T22:22:07.768Z,94941.45
2019-05-17T22:24:36.425Z,94944.40
2019-05-17T22:27:06.641Z,94941.84
2019-05-17T22:29:35.274Z,94950.83
2019-05-17T22:32:03.970Z,94939.83
2019-05-17T22:34:32.566Z,94947.53
2019-05-17T22:37:01.224Z,94949.25
2019-05-17T22:39:31.269Z,94949.25
2019-05-17T22:42:01.332Z,94946.84
2019-05-17T22:44:29.881Z,94949.40
2019-05-17T22:46:58.519Z,94952.83
2019-05-17T22:49:27.052Z,94952.84
2019-05-17T22:51:55.623Z,94952.45
2019-05-17T22:54:24.232Z,94947.75
2019-05-17T22:56:52.843Z,94953.31
2019-05-17T22:59:21.412Z,94943.16
2019-05-17T23:01:49.982Z,94944.88
2019-05-17T23:04:18.529Z,94940.25
2019-05-17T23:06:47.031Z,94938.97
2019-05-17T23:09:15.615Z,94941.99
2019-05-17T23:11:44.276Z,94937.34
2019-05-17T23:14:12.888Z,94937.39
2019-05-17T23:16:50.915Z,94939.09
2019-05-17T23:19:11.994Z,94936.58
2019-05-17T23:21:40.607Z,94932.39
2019-05-17T23:24:09.220Z,94927.66
2019-05-17T23:26:37.889Z,94924.76
2019-05-17T23:29:06.496Z,94922.64
2019-05-17T23:31:35.039Z,94921.80
2019-05-17T23:34:03.643Z,94921.80
2019-05-17T23:36:32.283Z,94924.85
2019-05-17T23:39:01.003Z,94922.81
2019-05-17T23:41:29.532Z,94925.34
2019-05-17T23:43:58.282Z,94920.23
2019-05-17T23:46:26.823Z,94930.39
2019-05-17T23:48:55.357Z,94928.69
2019-05-17T23:51:23.960Z,94926.58
2019-05-17T23:53:52.576Z,94923.19
2019-05-17T23:56:21.170Z,94918.53
2019-05-17T23:58:49.793Z,94915.99
